Terminal Aerodrome Forecast
Issued by NWS Northern Indiana

Home | Current Version | Previous Version | Graphics & Text | Print | Product List | Glossary On
Versions: 1 2 3 4 5 6 7 8 9 10 11 12 13 14
000
FTUS43 KIWX 250522
TAFFWA
TAF
KFWA 250522Z 2506/2606 21009KT P6SM OVC120
     FM251100 18006KT P6SM OVC080
     FM251300 17007KT P6SM VCSH OVC070
     FM252000 12009KT P6SM VCSH OVC060
     FM260300 10009KT 5SM SHRA BR OVC060=

USA.gov is the U.S. government's official web portal to all federal, state and local government web resources and services.